sensor_id;sensor_type;location;lat;lon;timestamp;pressure;altitude;pressure_sealevel;temperature;humidity
59274;BME280;45044;41.572;24.730;2023-07-30T00:00:10;91374.88;;;14.66;100.00
59274;BME280;45044;41.572;24.730;2023-07-30T00:02:37;91370.59;;;14.76;100.00
59274;BME280;45044;41.572;24.730;2023-07-30T00:05:04;91374.97;;;14.90;100.00
59274;BME280;45044;41.572;24.730;2023-07-30T00:07:31;91367.44;;;14.88;100.00
59274;BME280;45044;41.572;24.730;2023-07-30T00:09:58;91366.72;;;14.84;100.00
59274;BME280;45044;41.572;24.730;2023-07-30T00:12:25;91369.72;;;14.86;100.00
59274;BME280;45044;41.572;24.730;2023-07-30T00:14:51;91375.53;;;14.73;100.00
59274;BME280;45044;41.572;24.730;2023-07-30T00:17:18;91373.56;;;14.78;100.00
59274;BME280;45044;41.572;24.730;2023-07-30T00:19:45;91368.91;;;14.89;100.00
59274;BME280;45044;41.572;24.730;2023-07-30T00:22:11;91365.91;;;14.87;100.00
59274;BME280;45044;41.572;24.730;2023-07-30T00:24:38;91380.47;;;14.71;100.00
59274;BME280;45044;41.572;24.730;2023-07-30T00:27:05;91374.38;;;14.75;100.00
59274;BME280;45044;41.572;24.730;2023-07-30T00:29:32;91364.63;;;14.68;100.00
59274;BME280;45044;41.572;24.730;2023-07-30T00:31:59;91380.25;;;14.58;100.00
59274;BME280;45044;41.572;24.730;2023-07-30T00:34:26;91376.75;;;14.65;100.00
59274;BME280;45044;41.572;24.730;2023-07-30T00:36:53;91370.06;;;14.57;100.00
59274;BME280;45044;41.572;24.730;2023-07-30T00:39:20;91373.06;;;14.59;100.00
59274;BME280;45044;41.572;24.730;2023-07-30T00:41:47;91380.63;;;14.57;100.00
59274;BME280;45044;41.572;24.730;2023-07-30T00:44:14;91376.06;;;14.61;100.00
59274;BME280;45044;41.572;24.730;2023-07-30T00:46:41;91371.47;;;14.65;100.00
59274;BME280;45044;41.572;24.730;2023-07-30T00:49:08;91376.06;;;14.61;100.00
59274;BME280;45044;41.572;24.730;2023-07-30T00:51:35;91372.38;;;14.51;100.00
59274;BME280;45044;41.572;24.730;2023-07-30T00:54:02;91373.16;;;14.52;100.00
59274;BME280;45044;41.572;24.730;2023-07-30T00:56:29;91371.63;;;14.51;100.00
59274;BME280;45044;41.572;24.730;2023-07-30T00:58:57;91373.97;;;14.45;100.00
59274;BME280;45044;41.572;24.730;2023-07-30T01:01:23;91377.75;;;14.44;100.00
59274;BME280;45044;41.572;24.730;2023-07-30T01:03:50;91370.31;;;14.35;100.00
59274;BME280;45044;41.572;24.730;2023-07-30T01:06:17;91369.59;;;14.31;100.00
59274;BME280;45044;41.572;24.730;2023-07-30T01:08:47;91369.94;;;14.33;100.00
59274;BME280;45044;41.572;24.730;2023-07-30T01:11:14;91372.56;;;14.36;100.00
59274;BME280;45044;41.572;24.730;2023-07-30T01:13:42;91370.97;;;14.43;100.00
59274;BME280;45044;41.572;24.730;2023-07-30T01:16:13;91369.44;;;14.45;100.00
59274;BME280;45044;41.572;24.730;2023-07-30T01:18:39;91371.38;;;14.41;100.00
59274;BME280;45044;41.572;24.730;2023-07-30T01:21:06;91368.84;;;14.30;100.00
59274;BME280;45044;41.572;24.730;2023-07-30T01:23:33;91371.47;;;14.34;100.00
59274;BME280;45044;41.572;24.730;2023-07-30T01:26:22;91370.47;;;14.20;100.00
59274;BME280;45044;41.572;24.730;2023-07-30T01:28:54;91370.09;;;14.18;100.00
59274;BME280;45044;41.572;24.730;2023-07-30T01:31:25;91362.22;;;14.15;100.00
59274;BME280;45044;41.572;24.730;2023-07-30T01:33:54;91356.47;;;13.85;100.00
59274;BME280;45044;41.572;24.730;2023-07-30T01:36:22;91360.50;;;13.97;100.00
59274;BME280;45044;41.572;24.730;2023-07-30T01:38:50;91359.69;;;14.04;100.00
59274;BME280;45044;41.572;24.730;2023-07-30T01:41:17;91366.19;;;13.95;100.00
59274;BME280;45044;41.572;24.730;2023-07-30T01:43:44;91361.31;;;13.94;100.00
59274;BME280;45044;41.572;24.730;2023-07-30T01:46:10;91358.69;;;13.90;100.00
59274;BME280;45044;41.572;24.730;2023-07-30T01:48:37;91362.06;;;13.91;100.00
59274;BME280;45044;41.572;24.730;2023-07-30T01:51:04;91359.47;;;13.87;100.00
59274;BME280;45044;41.572;24.730;2023-07-30T01:53:31;91373.06;;;13.85;100.00
59274;BME280;45044;41.572;24.730;2023-07-30T01:55:57;91363.25;;;13.86;100.00
59274;BME280;45044;41.572;24.730;2023-07-30T01:58:24;91368.94;;;13.84;100.00
59274;BME280;45044;41.572;24.730;2023-07-30T02:00:51;91362.47;;;13.89;100.00
59274;BME280;45044;41.572;24.730;2023-07-30T02:03:17;91369.25;;;13.90;100.00
59274;BME280;45044;41.572;24.730;2023-07-30T02:05:44;91361.09;;;13.73;100.00
59274;BME280;45044;41.572;24.730;2023-07-30T02:08:11;91363.44;;;13.64;100.00
59274;BME280;45044;41.572;24.730;2023-07-30T02:10:42;91364.88;;;13.72;100.00
59274;BME280;45044;41.572;24.730;2023-07-30T02:13:09;91364.53;;;13.70;100.00
59274;BME280;45044;41.572;24.730;2023-07-30T02:15:40;91362.66;;;13.67;100.00
59274;BME280;45044;41.572;24.730;2023-07-30T02:18:08;91357.00;;;13.65;100.00
59274;BME280;45044;41.572;24.730;2023-07-30T02:20:36;91358.09;;;13.71;100.00
59274;BME280;45044;41.572;24.730;2023-07-30T02:23:03;91359.94;;;13.74;100.00
59274;BME280;45044;41.572;24.730;2023-07-30T02:25:35;91364.91;;;13.69;100.00
59274;BME280;45044;41.572;24.730;2023-07-30T02:28:02;91363.41;;;13.68;100.00
59274;BME280;45044;41.572;24.730;2023-07-30T02:30:29;91360.41;;;13.65;100.00
59274;BME280;45044;41.572;24.730;2023-07-30T02:32:56;91358.13;;;13.68;100.00
59274;BME280;45044;41.572;24.730;2023-07-30T02:35:22;91365.69;;;13.65;100.00
59274;BME280;45044;41.572;24.730;2023-07-30T02:37:49;91363.47;;;13.60;100.00
59274;BME280;45044;41.572;24.730;2023-07-30T02:40:16;91355.97;;;13.51;100.00
59274;BME280;45044;41.572;24.730;2023-07-30T02:42:43;91368.41;;;13.55;100.00
59274;BME280;45044;41.572;24.730;2023-07-30T02:45:10;91370.69;;;13.52;100.00
59274;BME280;45044;41.572;24.730;2023-07-30T02:47:37;91361.25;;;13.51;100.00
59274;BME280;45044;41.572;24.730;2023-07-30T02:50:04;91365.03;;;13.54;100.00
59274;BME280;45044;41.572;24.730;2023-07-30T02:52:32;91368.06;;;13.52;100.00
59274;BME280;45044;41.572;24.730;2023-07-30T02:54:59;91359.75;;;13.50;100.00
59274;BME280;45044;41.572;24.730;2023-07-30T02:57:26;91356.41;;;13.46;100.00
59274;BME280;45044;41.572;24.730;2023-07-30T02:59:52;91369.56;;;13.50;100.00
59274;BME280;45044;41.572;24.730;2023-07-30T03:02:19;91366.97;;;13.46;100.00
59274;BME280;45044;41.572;24.730;2023-07-30T03:04:46;91371.13;;;13.44;100.00
59274;BME280;45044;41.572;24.730;2023-07-30T03:07:13;91367.38;;;13.41;100.00
59274;BME280;45044;41.572;24.730;2023-07-30T03:09:40;91373.41;;;13.41;100.00
59274;BME280;45044;41.572;24.730;2023-07-30T03:12:07;91374.13;;;13.46;100.00
59274;BME280;45044;41.572;24.730;2023-07-30T03:14:34;91377.50;;;13.50;100.00
59274;BME280;45044;41.572;24.730;2023-07-30T03:17:00;91382.78;;;13.50;100.00
59274;BME280;45044;41.572;24.730;2023-07-30T03:19:27;91377.16;;;13.44;100.00
59274;BME280;45044;41.572;24.730;2023-07-30T03:21:54;91382.59;;;13.22;100.00
59274;BME280;45044;41.572;24.730;2023-07-30T03:24:21;91377.31;;;13.22;100.00
59274;BME280;45044;41.572;24.730;2023-07-30T03:26:47;91386.69;;;13.27;100.00
59274;BME280;45044;41.572;24.730;2023-07-30T03:29:15;91382.53;;;13.33;100.00
59274;BME280;45044;41.572;24.730;2023-07-30T03:31:42;91379.16;;;13.29;100.00
59274;BME280;45044;41.572;24.730;2023-07-30T03:34:09;91383.97;;;13.38;100.00
59274;BME280;45044;41.572;24.730;2023-07-30T03:36:35;91382.84;;;13.43;100.00
59274;BME280;45044;41.572;24.730;2023-07-30T03:39:03;91384.72;;;13.42;100.00
59274;BME280;45044;41.572;24.730;2023-07-30T03:41:29;91386.16;;;13.50;100.00
59274;BME280;45044;41.572;24.730;2023-07-30T03:43:56;91390.66;;;13.61;100.00
59274;BME280;45044;41.572;24.730;2023-07-30T03:46:23;91396.72;;;13.50;100.00
59274;BME280;45044;41.572;24.730;2023-07-30T03:48:50;91386.94;;;13.47;100.00
59274;BME280;45044;41.572;24.730;2023-07-30T03:51:16;91393.66;;;13.63;100.00
59274;BME280;45044;41.572;24.730;2023-07-30T03:53:43;91390.59;;;13.68;100.00
59274;BME280;45044;41.572;24.730;2023-07-30T03:56:10;91400.38;;;13.71;100.00
59274;BME280;45044;41.572;24.730;2023-07-30T03:58:37;91399.25;;;13.69;100.00
59274;BME280;45044;41.572;24.730;2023-07-30T04:01:04;91398.50;;;13.68;100.00
59274;BME280;45044;41.572;24.730;2023-07-30T04:03:30;91398.88;;;13.70;100.00
59274;BME280;45044;41.572;24.730;2023-07-30T04:05:57;91398.88;;;13.70;100.00
59274;BME280;45044;41.572;24.730;2023-07-30T04:08:24;91402.28;;;13.67;100.00
59274;BME280;45044;41.572;24.730;2023-07-30T04:10:51;91405.28;;;13.69;100.00
59274;BME280;45044;41.572;24.730;2023-07-30T04:13:18;91411.66;;;13.75;100.00
59274;BME280;45044;41.572;24.730;2023-07-30T04:15:47;91394.97;;;13.86;100.00
59274;BME280;45044;41.572;24.730;2023-07-30T04:18:14;91405.81;;;13.95;100.00
59274;BME280;45044;41.572;24.730;2023-07-30T04:20:41;91403.53;;;13.97;100.00
59274;BME280;45044;41.572;24.730;2023-07-30T04:23:07;91404.59;;;14.04;100.00
59274;BME280;45044;41.572;24.730;2023-07-30T04:25:34;91405.34;;;14.08;100.00
59274;BME280;45044;41.572;24.730;2023-07-30T04:28:01;91405.72;;;14.06;100.00
59274;BME280;45044;41.572;24.730;2023-07-30T04:30:28;91406.03;;;14.16;100.00
59274;BME280;45044;41.572;24.730;2023-07-30T04:32:55;91403.66;;;14.21;100.00
59274;BME280;45044;41.572;24.730;2023-07-30T04:35:21;91403.19;;;14.34;100.00
59274;BME280;45044;41.572;24.730;2023-07-30T04:37:48;91403.88;;;14.38;100.00
59274;BME280;45044;41.572;24.730;2023-07-30T04:40:15;91401.59;;;14.40;100.00
59274;BME280;45044;41.572;24.730;2023-07-30T04:42:42;91410.91;;;14.52;100.00
59274;BME280;45044;41.572;24.730;2023-07-30T04:45:09;91408.56;;;14.58;100.00
59274;BME280;45044;41.572;24.730;2023-07-30T04:47:35;91414.19;;;14.64;100.00
59274;BME280;45044;41.572;24.730;2023-07-30T04:50:02;91409.22;;;14.69;100.00
59274;BME280;45044;41.572;24.730;2023-07-30T04:52:30;91410.63;;;14.78;100.00
59274;BME280;45044;41.572;24.730;2023-07-30T04:54:56;91412.06;;;14.86;100.00
59274;BME280;45044;41.572;24.730;2023-07-30T04:57:23;91408.00;;;15.37;100.00
59274;BME280;45044;41.572;24.730;2023-07-30T04:59:50;91413.78;;;17.63;100.00
59274;BME280;45044;41.572;24.730;2023-07-30T05:02:17;91408.09;;;19.65;100.00
59274;BME280;45044;41.572;24.730;2023-07-30T05:04:44;91402.53;;;21.33;100.00
59274;BME280;45044;41.572;24.730;2023-07-30T05:07:11;91406.03;;;22.88;100.00
59274;BME280;45044;41.572;24.730;2023-07-30T05:09:37;91412.28;;;23.90;91.94
59274;BME280;45044;41.572;24.730;2023-07-30T05:12:04;91406.28;;;24.59;81.69
59274;BME280;45044;41.572;24.730;2023-07-30T05:14:31;91414.09;;;25.63;72.38
59274;BME280;45044;41.572;24.730;2023-07-30T05:16:58;91417.38;;;26.45;66.02
59274;BME280;45044;41.572;24.730;2023-07-30T05:19:24;91414.97;;;27.21;61.94
59274;BME280;45044;41.572;24.730;2023-07-30T05:21:51;91412.53;;;27.94;58.50
59274;BME280;45044;41.572;24.730;2023-07-30T05:24:19;91418.25;;;28.63;56.13
59274;BME280;45044;41.572;24.730;2023-07-30T05:26:46;91411.50;;;29.13;53.90
59274;BME280;45044;41.572;24.730;2023-07-30T05:29:14;91405.09;;;29.80;51.53
59274;BME280;45044;41.572;24.730;2023-07-30T05:31:40;91410.00;;;29.98;50.56
59274;BME280;45044;41.572;24.730;2023-07-30T05:34:07;91404.34;;;30.67;48.62
59274;BME280;45044;41.572;24.730;2023-07-30T05:36:34;91402.69;;;31.37;47.14
59274;BME280;45044;41.572;24.730;2023-07-30T05:39:01;91404.41;;;32.02;45.41
59274;BME280;45044;41.572;24.730;2023-07-30T05:41:27;91406.78;;;32.56;44.65
59274;BME280;45044;41.572;24.730;2023-07-30T05:43:54;91404.22;;;33.02;43.65
59274;BME280;45044;41.572;24.730;2023-07-30T05:46:21;91394.44;;;33.45;41.67
59274;BME280;45044;41.572;24.730;2023-07-30T05:48:48;91404.91;;;33.88;42.00
59274;BME280;45044;41.572;24.730;2023-07-30T05:51:14;91402.19;;;34.01;42.39
59274;BME280;45044;41.572;24.730;2023-07-30T05:53:41;91394.00;;;33.41;42.04
59274;BME280;45044;41.572;24.730;2023-07-30T05:56:08;91386.66;;;33.82;41.60
59274;BME280;45044;41.572;24.730;2023-07-30T05:58:35;91386.59;;;34.29;40.59
59274;BME280;45044;41.572;24.730;2023-07-30T06:01:02;91388.72;;;34.85;40.32
59274;BME280;45044;41.572;24.730;2023-07-30T06:03:29;91386.97;;;35.30;39.58
59274;BME280;45044;41.572;24.730;2023-07-30T06:05:56;91380.56;;;35.70;39.55
59274;BME280;45044;41.572;24.730;2023-07-30T06:08:22;91383.69;;;35.75;38.91
59274;BME280;45044;41.572;24.730;2023-07-30T06:10:50;91379.34;;;36.30;37.93
59274;BME280;45044;41.572;24.730;2023-07-30T06:13:18;91382.00;;;37.12;36.80
59274;BME280;45044;41.572;24.730;2023-07-30T06:15:45;91377.69;;;37.48;34.98
59274;BME280;45044;41.572;24.730;2023-07-30T06:18:12;91381.53;;;37.60;35.25
59274;BME280;45044;41.572;24.730;2023-07-30T06:20:39;91378.97;;;38.02;35.36
59274;BME280;45044;41.572;24.730;2023-07-30T06:23:05;91384.59;;;38.27;34.11
59274;BME280;45044;41.572;24.730;2023-07-30T06:25:32;91387.06;;;38.56;34.07
59274;BME280;45044;41.572;24.730;2023-07-30T06:27:59;91374.69;;;38.89;33.78
59274;BME280;45044;41.572;24.730;2023-07-30T06:30:26;91376.06;;;39.05;33.63
59274;BME280;45044;41.572;24.730;2023-07-30T06:32:53;91373.44;;;39.15;32.51
59274;BME280;45044;41.572;24.730;2023-07-30T06:35:20;91366.00;;;39.34;33.04
59274;BME280;45044;41.572;24.730;2023-07-30T06:37:47;91362.56;;;39.33;32.95
59274;BME280;45044;41.572;24.730;2023-07-30T06:40:14;91365.59;;;39.12;33.39
59274;BME280;45044;41.572;24.730;2023-07-30T06:45:52;91358.84;;;37.99;33.90
59274;BME280;45044;41.572;24.730;2023-07-30T06:48:19;91356.63;;;39.11;33.47
59274;BME280;45044;41.572;24.730;2023-07-30T06:50:46;91352.19;;;38.33;34.44
59274;BME280;45044;41.572;24.730;2023-07-30T06:53:13;91346.75;;;36.93;36.08
59274;BME280;45044;41.572;24.730;2023-07-30T06:55:39;91350.84;;;36.70;36.11
59274;BME280;45044;41.572;24.730;2023-07-30T06:58:06;91341.72;;;36.23;37.94
59274;BME280;45044;41.572;24.730;2023-07-30T07:00:33;91344.81;;;35.18;39.42
59274;BME280;45044;41.572;24.730;2023-07-30T07:03:03;91331.81;;;34.89;40.29
59274;BME280;45044;41.572;24.730;2023-07-30T07:05:30;91337.81;;;34.25;42.12
59274;BME280;45044;41.572;24.730;2023-07-30T07:07:57;91339.81;;;34.38;42.55
59274;BME280;45044;41.572;24.730;2023-07-30T07:10:24;91329.84;;;34.00;41.66
59274;BME280;45044;41.572;24.730;2023-07-30T07:12:50;91334.44;;;35.67;39.38
59274;BME280;45044;41.572;24.730;2023-07-30T07:15:17;91327.44;;;36.46;36.74
59274;BME280;45044;41.572;24.730;2023-07-30T07:17:44;91321.91;;;36.90;36.11
59274;BME280;45044;41.572;24.730;2023-07-30T07:20:12;91321.38;;;36.39;36.05
59274;BME280;45044;41.572;24.730;2023-07-30T07:22:38;91331.41;;;36.97;36.14
59274;BME280;45044;41.572;24.730;2023-07-30T07:25:14;91325.75;;;36.35;35.21
59274;BME280;45044;41.572;24.730;2023-07-30T07:27:41;91325.41;;;35.51;36.64
59274;BME280;45044;41.572;24.730;2023-07-30T07:30:08;91327.00;;;35.96;35.05
59274;BME280;45044;41.572;24.730;2023-07-30T07:32:35;91318.63;;;35.01;34.60
59274;BME280;45044;41.572;24.730;2023-07-30T07:35:06;91325.66;;;36.64;34.72
59274;BME280;45044;41.572;24.730;2023-07-30T07:37:32;91318.34;;;36.51;35.72
59274;BME280;45044;41.572;24.730;2023-07-30T07:39:59;91318.25;;;36.88;35.90
59274;BME280;45044;41.572;24.730;2023-07-30T07:42:26;91318.34;;;37.35;33.33
59274;BME280;45044;41.572;24.730;2023-07-30T07:44:53;91315.44;;;36.57;35.68
59274;BME280;45044;41.572;24.730;2023-07-30T07:47:20;91312.53;;;36.62;34.60
59274;BME280;45044;41.572;24.730;2023-07-30T07:49:47;91313.75;;;36.46;34.24
59274;BME280;45044;41.572;24.730;2023-07-30T07:52:17;91307.69;;;36.31;36.63
59274;BME280;45044;41.572;24.730;2023-07-30T07:54:44;91310.78;;;36.28;34.68
59274;BME280;45044;41.572;24.730;2023-07-30T07:57:11;91311.38;;;36.05;34.15
59274;BME280;45044;41.572;24.730;2023-07-30T07:59:41;91312.16;;;35.12;36.72
59274;BME280;45044;41.572;24.730;2023-07-30T08:02:11;91313.91;;;36.40;35.78
59274;BME280;45044;41.572;24.730;2023-07-30T08:04:39;91306.50;;;36.11;36.68
59274;BME280;45044;41.572;24.730;2023-07-30T08:07:11;91305.81;;;35.60;34.48
59274;BME280;45044;41.572;24.730;2023-07-30T08:09:38;91297.81;;;35.33;36.18
59274;BME280;45044;41.572;24.730;2023-07-30T08:12:05;91304.00;;;33.33;38.80
59274;BME280;45044;41.572;24.730;2023-07-30T08:14:44;91303.34;;;32.03;40.75
59274;BME280;45044;41.572;24.730;2023-07-30T08:17:10;91301.59;;;32.64;40.58
59274;BME280;45044;41.572;24.730;2023-07-30T08:19:37;91305.25;;;32.67;40.38
59274;BME280;45044;41.572;24.730;2023-07-30T08:22:05;91306.94;;;32.12;39.99
59274;BME280;45044;41.572;24.730;2023-07-30T08:24:32;91297.44;;;31.55;42.28
59274;BME280;45044;41.572;24.730;2023-07-30T08:27:01;91292.16;;;31.07;43.25
59274;BME280;45044;41.572;24.730;2023-07-30T08:29:31;91303.25;;;31.09;44.77
59274;BME280;45044;41.572;24.730;2023-07-30T08:31:57;91295.72;;;30.48;43.52
59274;BME280;45044;41.572;24.730;2023-07-30T08:34:25;91303.91;;;30.42;44.11
59274;BME280;45044;41.572;24.730;2023-07-30T08:36:51;91291.28;;;30.51;44.47
59274;BME280;45044;41.572;24.730;2023-07-30T08:39:19;91288.97;;;30.18;45.64
59274;BME280;45044;41.572;24.730;2023-07-30T08:41:46;91283.22;;;30.39;43.40
59274;BME280;45044;41.572;24.730;2023-07-30T08:44:13;91287.19;;;30.38;45.59
59274;BME280;45044;41.572;24.730;2023-07-30T08:46:40;91281.50;;;29.88;45.22
59274;BME280;45044;41.572;24.730;2023-07-30T08:49:07;91280.09;;;29.41;45.37
59274;BME280;45044;41.572;24.730;2023-07-30T08:51:36;91282.09;;;29.35;46.70
59274;BME280;45044;41.572;24.730;2023-07-30T08:54:05;91280.09;;;29.41;47.69
59274;BME280;45044;41.572;24.730;2023-07-30T08:56:33;91273.75;;;29.21;45.15
59274;BME280;45044;41.572;24.730;2023-07-30T08:59:02;91271.31;;;29.00;45.62
59274;BME280;45044;41.572;24.730;2023-07-30T09:01:35;91263.91;;;29.18;48.07
59274;BME280;45044;41.572;24.730;2023-07-30T09:04:06;91272.69;;;29.59;46.59
59274;BME280;45044;41.572;24.730;2023-07-30T09:06:33;91271.53;;;29.08;45.27
59274;BME280;45044;41.572;24.730;2023-07-30T09:09:01;91266.38;;;29.04;45.96
59274;BME280;45044;41.572;24.730;2023-07-30T09:11:32;91269.31;;;28.49;47.97
59274;BME280;45044;41.572;24.730;2023-07-30T09:14:01;91260.25;;;28.69;48.46
59274;BME280;45044;41.572;24.730;2023-07-30T09:16:28;91259.00;;;28.99;49.51
59274;BME280;45044;41.572;24.730;2023-07-30T09:18:54;91253.34;;;28.74;48.13
59274;BME280;45044;41.572;24.730;2023-07-30T09:21:31;91246.22;;;29.17;49.60
59274;BME280;45044;41.572;24.730;2023-07-30T09:24:02;91249.38;;;29.38;48.41
59274;BME280;45044;41.572;24.730;2023-07-30T09:26:42;91250.63;;;29.32;49.85
59274;BME280;45044;41.572;24.730;2023-07-30T09:29:10;91247.94;;;29.26;47.50
59274;BME280;45044;41.572;24.730;2023-07-30T09:31:45;91236.63;;;29.22;47.75
59274;BME280;45044;41.572;24.730;2023-07-30T09:34:17;91238.97;;;29.60;48.56
59274;BME280;45044;41.572;24.730;2023-07-30T09:36:50;91235.56;;;29.48;47.68
59274;BME280;45044;41.572;24.730;2023-07-30T09:39:26;91236.31;;;29.42;48.61
59274;BME280;45044;41.572;24.730;2023-07-30T09:41:59;91234.00;;;29.75;45.74
59274;BME280;45044;41.572;24.730;2023-07-30T09:44:27;91229.19;;;30.05;47.16
59274;BME280;45044;41.572;24.730;2023-07-30T09:46:54;91223.16;;;30.66;45.90
59274;BME280;45044;41.572;24.730;2023-07-30T09:49:22;91227.41;;;30.55;47.26
59274;BME280;45044;41.572;24.730;2023-07-30T09:51:52;91228.75;;;30.43;43.89
59274;BME280;45044;41.572;24.730;2023-07-30T09:54:20;91230.03;;;30.67;49.38
59274;BME280;45044;41.572;24.730;2023-07-30T09:56:50;91225.38;;;30.31;45.67
59274;BME280;45044;41.572;24.730;2023-07-30T09:59:17;91223.06;;;30.04;45.39
59274;BME280;45044;41.572;24.730;2023-07-30T10:01:47;91220.72;;;30.26;48.65
59274;BME280;45044;41.572;24.730;2023-07-30T10:04:25;91213.13;;;29.59;46.21
59274;BME280;45044;41.572;24.730;2023-07-30T10:07:01;91216.16;;;29.97;47.07
59274;BME280;45044;41.572;24.730;2023-07-30T10:09:33;91210.13;;;30.28;46.26
59274;BME280;45044;41.572;24.730;2023-07-30T10:12:02;91211.78;;;29.88;46.85
59274;BME280;45044;41.572;24.730;2023-07-30T10:14:40;91204.00;;;30.16;45.55
59274;BME280;45044;41.572;24.730;2023-07-30T10:17:16;91201.53;;;30.23;48.43
59274;BME280;45044;41.572;24.730;2023-07-30T10:19:48;91201.69;;;29.89;45.20
59274;BME280;45044;41.572;24.730;2023-07-30T10:22:23;91202.00;;;30.28;50.92
59274;BME280;45044;41.572;24.730;2023-07-30T10:25:00;91190.78;;;30.73;45.44
59274;BME280;45044;41.572;24.730;2023-07-30T10:27:41;91190.66;;;30.60;47.62
59274;BME280;45044;41.572;24.730;2023-07-30T10:30:14;91188.50;;;30.53;48.64
59274;BME280;45044;41.572;24.730;2023-07-30T10:35:44;91188.34;;;30.70;48.45
59274;BME280;45044;41.572;24.730;2023-07-30T10:41:00;91196.34;;;30.20;47.10
59274;BME280;45044;41.572;24.730;2023-07-30T10:43:35;91199.34;;;30.53;47.27
59274;BME280;45044;41.572;24.730;2023-07-30T10:46:04;91201.09;;;30.50;47.05
59274;BME280;45044;41.572;24.730;2023-07-30T10:48:40;91197.09;;;30.20;46.91
59274;BME280;45044;41.572;24.730;2023-07-30T10:51:13;91191.03;;;29.43;48.41
59274;BME280;45044;41.572;24.730;2023-07-30T10:53:47;91194.56;;;29.15;50.54
59274;BME280;45044;41.572;24.730;2023-07-30T10:56:18;91195.03;;;29.19;52.05
59274;BME280;45044;41.572;24.730;2023-07-30T10:58:51;91177.78;;;29.34;51.15
59274;BME280;45044;41.572;24.730;2023-07-30T11:01:20;91188.22;;;28.78;51.84
59274;BME280;45044;41.572;24.730;2023-07-30T11:03:50;91182.56;;;28.87;52.71
59274;BME280;45044;41.572;24.730;2023-07-30T11:06:25;91184.25;;;29.08;51.80
59274;BME280;45044;41.572;24.730;2023-07-30T11:08:53;91180.22;;;29.43;54.06
59274;BME280;45044;41.572;24.730;2023-07-30T11:11:24;91174.28;;;29.50;48.89
59274;BME280;45044;41.572;24.730;2023-07-30T11:13:52;91185.41;;;29.95;51.28
59274;BME280;45044;41.572;24.730;2023-07-30T11:16:19;91185.56;;;29.60;53.60
59274;BME280;45044;41.572;24.730;2023-07-30T11:19:00;91184.09;;;29.53;53.22
59274;BME280;45044;41.572;24.730;2023-07-30T11:21:34;91179.19;;;29.52;52.97
59274;BME280;45044;41.572;24.730;2023-07-30T11:24:01;91183.00;;;29.14;52.37
59274;BME280;45044;41.572;24.730;2023-07-30T11:26:30;91183.25;;;29.11;51.56
59274;BME280;45044;41.572;24.730;2023-07-30T11:28:57;91180.56;;;29.05;53.92
59274;BME280;45044;41.572;24.730;2023-07-30T11:31:28;91176.91;;;29.02;56.80
59274;BME280;45044;41.572;24.730;2023-07-30T11:33:55;91168.97;;;29.27;62.11
59274;BME280;45044;41.572;24.730;2023-07-30T11:36:24;91174.88;;;29.85;58.27
59274;BME280;45044;41.572;24.730;2023-07-30T11:38:54;91166.63;;;29.66;57.14
59274;BME280;45044;41.572;24.730;2023-07-30T11:41:23;91164.19;;;29.51;59.35
59274;BME280;45044;41.572;24.730;2023-07-30T11:43:53;91164.44;;;29.47;55.80
59274;BME280;45044;41.572;24.730;2023-07-30T11:46:23;91169.31;;;30.08;61.90
59274;BME280;45044;41.572;24.730;2023-07-30T11:49:11;91164.69;;;29.97;57.15
59274;BME280;45044;41.572;24.730;2023-07-30T11:51:38;91159.28;;;29.97;58.04
59274;BME280;45044;41.572;24.730;2023-07-30T11:54:21;91153.41;;;29.93;57.10
59274;BME280;45044;41.572;24.730;2023-07-30T11:56:55;91140.72;;;30.13;53.96
59274;BME280;45044;41.572;24.730;2023-07-30T11:59:23;91147.88;;;30.47;53.64
59274;BME280;45044;41.572;24.730;2023-07-30T12:01:50;91144.81;;;30.62;51.62
59274;BME280;45044;41.572;24.730;2023-07-30T12:04:17;91139.34;;;30.37;54.85
59274;BME280;45044;41.572;24.730;2023-07-30T12:06:54;91132.53;;;30.24;53.48
59274;BME280;45044;41.572;24.730;2023-07-30T12:09:23;91126.88;;;29.86;53.65
59274;BME280;45044;41.572;24.730;2023-07-30T12:11:57;91124.84;;;29.44;53.88
59274;BME280;45044;41.572;24.730;2023-07-30T12:17:17;91129.44;;;29.01;57.05
59274;BME280;45044;41.572;24.730;2023-07-30T12:19:45;91127.22;;;29.00;60.07
59274;BME280;45044;41.572;24.730;2023-07-30T12:22:15;91128.03;;;28.54;57.30
59274;BME280;45044;41.572;24.730;2023-07-30T12:24:42;91125.59;;;28.51;60.05
59274;BME280;45044;41.572;24.730;2023-07-30T12:27:11;91126.78;;;28.21;61.49
59274;BME280;45044;41.572;24.730;2023-07-30T12:29:38;91123.84;;;28.07;62.46
59274;BME280;45044;41.572;24.730;2023-07-30T12:32:06;91118.94;;;28.34;70.22
59274;BME280;45044;41.572;24.730;2023-07-30T12:34:33;91130.00;;;28.31;62.44
59274;BME280;45044;41.572;24.730;2023-07-30T12:37:02;91125.50;;;28.91;69.65
59274;BME280;45044;41.572;24.730;2023-07-30T12:39:29;91125.97;;;29.01;64.51
59274;BME280;45044;41.572;24.730;2023-07-30T12:41:56;91124.75;;;28.96;61.33
59274;BME280;45044;41.572;24.730;2023-07-30T12:44:24;91122.56;;;28.83;62.55
59274;BME280;45044;41.572;24.730;2023-07-30T12:46:51;91107.91;;;28.15;64.64
59274;BME280;45044;41.572;24.730;2023-07-30T12:49:22;91125.81;;;28.01;64.38
59274;BME280;45044;41.572;24.730;2023-07-30T12:51:50;91115.03;;;28.24;63.81
59274;BME280;45044;41.572;24.730;2023-07-30T12:54:18;91112.56;;;28.61;67.40
59274;BME280;45044;41.572;24.730;2023-07-30T12:56:45;91112.31;;;28.18;64.80
59274;BME280;45044;41.572;24.730;2023-07-30T12:59:20;91112.78;;;28.00;67.63
59274;BME280;45044;41.572;24.730;2023-07-30T13:01:49;91110.81;;;27.83;73.72